createdAt,value
2022-10-18T00:00:18.847Z,16.19
2022-10-18T00:02:46.619Z,15.44
2022-10-18T00:05:13.884Z,15.66
2022-10-18T00:07:41.453Z,16.78
2022-10-18T00:10:08.615Z,15.68
2022-10-18T00:12:36.863Z,16.48
2022-10-18T00:15:05.552Z,14.66
2022-10-18T00:17:34.557Z,12.63
2022-10-18T00:20:01.231Z,14.88
2022-10-18T00:22:28.106Z,15.56
2022-10-18T00:24:55.214Z,16.28
2022-10-18T00:27:21.919Z,16.67
2022-10-18T00:29:53.105Z,17.14
2022-10-18T00:32:19.843Z,14.88
2022-10-18T00:34:46.651Z,14.22
2022-10-18T00:37:13.686Z,13.29
2022-10-18T00:39:40.468Z,14.12
2022-10-18T00:42:07.404Z,14.83
2022-10-18T00:44:34.098Z,15.50
2022-10-18T00:47:05.100Z,16.74
2022-10-18T00:49:33.979Z,15.70
2022-10-18T00:52:08.294Z,15.45
2022-10-18T00:54:38.449Z,14.23
2022-10-18T00:57:06.297Z,15.23
2022-10-18T00:59:34.070Z,16.25
2022-10-18T01:02:01.580Z,16.15
2022-10-18T01:04:28.537Z,16.71
2022-10-18T01:07:00.367Z,15.39
2022-10-18T01:09:36.005Z,14.15
2022-10-18T01:12:28.158Z,13.25
2022-10-18T01:14:54.921Z,14.63
2022-10-18T01:17:30.717Z,15.21
2022-10-18T01:20:27.757Z,15.31
2022-10-18T01:23:08.717Z,15.48
2022-10-18T01:26:02.043Z,16.54
2022-10-18T01:29:03.958Z,14.86
2022-10-18T01:31:34.973Z,14.16
2022-10-18T01:34:05.650Z,15.32
2022-10-18T01:36:35.922Z,15.83
2022-10-18T01:39:07.635Z,16.10
2022-10-18T01:41:37.748Z,14.76
2022-10-18T01:44:09.747Z,16.05
2022-10-18T01:46:39.879Z,15.77
2022-10-18T01:49:07.318Z,14.81
2022-10-18T01:51:34.401Z,15.29
2022-10-18T01:54:01.921Z,16.48
2022-10-18T01:56:34.229Z,16.28
2022-10-18T01:59:21.899Z,16.61
2022-10-18T02:01:54.193Z,15.41
2022-10-18T02:05:00.631Z,12.84
2022-10-18T02:07:36.562Z,15.62
2022-10-18T02:10:17.023Z,16.25
2022-10-18T02:12:47.004Z,16.37
2022-10-18T02:15:17.692Z,15.70
2022-10-18T02:17:47.563Z,15.45
2022-10-18T02:20:20.655Z,15.29
2022-10-18T02:22:50.476Z,14.89
2022-10-18T02:25:23.406Z,14.44
2022-10-18T02:27:55.286Z,15.89
2022-10-18T02:30:37.152Z,16.44
2022-10-18T02:33:32.387Z,14.92
2022-10-18T02:36:05.599Z,12.24
2022-10-18T02:38:33.606Z,12.50
2022-10-18T02:41:01.369Z,15.47
2022-10-18T02:43:28.142Z,15.92
2022-10-18T02:45:54.887Z,15.62
2022-10-18T02:48:21.609Z,14.68
2022-10-18T02:50:48.397Z,13.61
2022-10-18T02:53:15.198Z,14.08
2022-10-18T02:55:41.957Z,14.98
2022-10-18T02:58:08.734Z,15.37
2022-10-18T03:00:35.426Z,14.82
2022-10-18T03:03:02.770Z,13.56
2022-10-18T03:05:29.522Z,13.23
2022-10-18T03:07:59.127Z,12.35
2022-10-18T03:10:25.857Z,14.80
2022-10-18T03:12:52.631Z,15.39
2022-10-18T03:15:19.319Z,15.63
2022-10-18T03:17:46.661Z,15.83
2022-10-18T03:20:13.933Z,15.26
2022-10-18T03:22:40.934Z,14.40
2022-10-18T03:25:07.979Z,13.89
2022-10-18T03:27:35.035Z,14.84
2022-10-18T03:30:01.858Z,15.15
2022-10-18T03:32:28.584Z,14.44
2022-10-18T03:34:55.275Z,14.80
2022-10-18T03:37:22.061Z,14.28
2022-10-18T03:39:48.778Z,14.75
2022-10-18T03:42:15.843Z,12.83
2022-10-18T03:44:43.219Z,13.47
2022-10-18T03:47:09.943Z,14.17
2022-10-18T03:49:36.724Z,14.23
2022-10-18T03:52:03.633Z,14.55
2022-10-18T03:54:30.940Z,14.27
2022-10-18T03:56:57.614Z,14.94
2022-10-18T03:59:24.746Z,13.06
2022-10-18T04:01:51.630Z,14.51
2022-10-18T04:04:18.466Z,14.60
2022-10-18T04:06:45.575Z,14.57
2022-10-18T04:09:12.559Z,14.19
2022-10-18T04:11:39.262Z,13.38
2022-10-18T04:14:06.009Z,14.68
2022-10-18T04:19:07.954Z,12.64
2022-10-18T04:21:34.733Z,13.09
2022-10-18T04:24:01.409Z,12.84
2022-10-18T04:26:28.682Z,12.37
2022-10-18T04:28:55.598Z,12.41
2022-10-18T04:31:22.284Z,12.77
2022-10-18T04:33:48.982Z,12.28
2022-10-18T04:36:15.913Z,11.97
2022-10-18T04:38:42.836Z,12.53
2022-10-18T04:41:09.517Z,12.46
2022-10-18T04:43:36.295Z,12.99
2022-10-18T04:46:03.569Z,12.73
2022-10-18T04:48:30.249Z,12.90
2022-10-18T04:50:57.021Z,12.13
2022-10-18T04:53:23.710Z,11.44
2022-10-18T04:55:51.242Z,11.26
2022-10-18T04:58:19.212Z,11.04
2022-10-18T05:00:48.442Z,11.52
2022-10-18T05:03:15.531Z,12.47
2022-10-18T05:06:00.682Z,11.94
2022-10-18T05:08:29.479Z,13.12
2022-10-18T05:10:56.489Z,11.81
2022-10-18T05:13:23.347Z,11.54
2022-10-18T05:15:50.078Z,10.35
2022-10-18T05:18:17.458Z,11.16
2022-10-18T05:20:44.203Z,12.35
2022-10-18T05:23:10.984Z,12.18
2022-10-18T05:25:42.372Z,12.02
2022-10-18T05:28:11.087Z,13.06
2022-10-18T05:30:42.728Z,14.26
2022-10-18T05:33:09.745Z,12.59
2022-10-18T05:35:36.617Z,13.10
2022-10-18T05:38:06.765Z,12.67
2022-10-18T05:40:34.181Z,14.84
2022-10-18T05:43:00.902Z,11.38
2022-10-18T05:45:27.662Z,10.53
2022-10-18T05:47:55.070Z,10.29
2022-10-18T05:50:22.168Z,11.00
2022-10-18T05:52:49.425Z,9.83
2022-10-18T05:55:16.090Z,11.84
2022-10-18T05:57:42.783Z,12.06
2022-10-18T06:00:10.667Z,12.77
2022-10-18T06:02:42.139Z,12.80
2022-10-18T06:05:09.119Z,12.33
2022-10-18T06:07:35.902Z,13.13
2022-10-18T06:10:03.240Z,13.67
2022-10-18T06:12:29.962Z,12.12
2022-10-18T06:14:57.002Z,13.71
2022-10-18T06:17:24.145Z,12.16
2022-10-18T06:19:51.879Z,14.27
2022-10-18T06:22:19.966Z,14.86
2022-10-18T06:24:47.023Z,15.44
2022-10-18T06:27:13.967Z,15.82
2022-10-18T06:29:41.064Z,15.27
2022-10-18T06:32:08.051Z,15.85
2022-10-18T06:34:35.210Z,16.68
2022-10-18T06:37:03.552Z,16.20
2022-10-18T06:39:30.263Z,16.26
2022-10-18T06:41:57.222Z,16.00
2022-10-18T06:44:24.162Z,15.48
2022-10-18T06:46:51.647Z,14.96
2022-10-18T06:49:19.855Z,15.94
2022-10-18T06:51:46.706Z,17.25
2022-10-18T06:54:18.142Z,19.02
2022-10-18T06:56:45.347Z,17.41
2022-10-18T06:59:12.465Z,17.57
2022-10-18T07:01:39.178Z,18.90
2022-10-18T07:04:05.891Z,17.40
2022-10-18T07:06:32.793Z,17.11
2022-10-18T07:09:00.248Z,18.12
2022-10-18T07:11:27.462Z,18.69
2022-10-18T07:14:00.908Z,18.52
2022-10-18T07:16:27.845Z,17.80
2022-10-18T07:18:54.783Z,17.40
2022-10-18T07:21:24.206Z,16.81
2022-10-18T07:23:51.898Z,18.99
2022-10-18T07:26:24.896Z,19.28
2022-10-18T07:28:55.904Z,17.80
2022-10-18T07:31:24.221Z,18.03
2022-10-18T07:33:51.571Z,19.58
2022-10-18T07:36:19.134Z,18.33
2022-10-18T07:38:46.016Z,19.78
2022-10-18T07:41:14.221Z,19.26
2022-10-18T07:43:50.798Z,20.86
2022-10-18T07:46:18.383Z,19.99
2022-10-18T07:48:46.393Z,20.90
2022-10-18T07:51:13.658Z,19.85
2022-10-18T07:53:40.584Z,21.99
2022-10-18T07:56:15.759Z,21.02
2022-10-18T07:58:46.414Z,20.55
2022-10-18T08:01:14.220Z,25.72
2022-10-18T08:03:42.901Z,24.66
2022-10-18T08:06:11.961Z,25.15
2022-10-18T08:08:40.547Z,23.94
2022-10-18T08:11:10.564Z,21.22
2022-10-18T08:13:37.332Z,21.04
2022-10-18T08:16:13.311Z,21.27
2022-10-18T08:18:40.647Z,21.28
2022-10-18T08:21:09.590Z,24.70
2022-10-18T08:23:36.971Z,27.43
2022-10-18T08:26:09.554Z,25.99
2022-10-18T08:28:36.970Z,26.87
2022-10-18T08:31:06.030Z,25.62
2022-10-18T08:33:34.873Z,23.92
2022-10-18T08:36:07.339Z,25.15
2022-10-18T08:38:38.631Z,25.13
2022-10-18T08:41:37.318Z,27.96
2022-10-18T08:44:09.212Z,25.98
2022-10-18T08:46:38.897Z,25.21
2022-10-18T08:49:11.224Z,24.87
2022-10-18T08:51:45.396Z,23.58
2022-10-18T08:54:22.885Z,23.02
2022-10-18T08:56:58.405Z,22.47
2022-10-18T08:59:25.693Z,26.38
2022-10-18T09:02:17.700Z,23.49
2022-10-18T09:04:55.124Z,23.96
2022-10-18T09:07:53.871Z,26.49
2022-10-18T09:10:42.454Z,25.56
2022-10-18T09:14:03.411Z,24.90
2022-10-18T09:16:48.234Z,25.92
2022-10-18T09:19:23.476Z,23.83
2022-10-18T09:21:52.685Z,25.91
2022-10-18T09:24:45.906Z,25.52
2022-10-18T09:27:17.066Z,25.23
2022-10-18T09:30:27.023Z,27.81
2022-10-18T09:33:03.080Z,25.18
2022-10-18T09:35:56.742Z,26.81
2022-10-18T09:38:30.932Z,26.96
2022-10-18T09:41:04.904Z,26.60
2022-10-18T09:43:54.971Z,24.61
2022-10-18T09:46:25.469Z,26.17
2022-10-18T09:49:00.290Z,28.13
2022-10-18T09:51:33.834Z,26.87
2022-10-18T09:54:25.396Z,26.53
2022-10-18T09:57:06.970Z,25.74
2022-10-18T09:59:42.883Z,27.04
2022-10-18T10:02:16.451Z,25.41
2022-10-18T10:04:43.342Z,25.72
2022-10-18T10:07:19.519Z,26.38
2022-10-18T10:09:48.522Z,25.16
2022-10-18T10:12:29.274Z,26.65
2022-10-18T10:15:31.222Z,25.31
2022-10-18T10:18:05.869Z,26.32
2022-10-18T10:20:43.130Z,23.83
2022-10-18T10:23:32.778Z,25.52
2022-10-18T10:26:02.490Z,29.95
2022-10-18T10:28:33.813Z,27.96
2022-10-18T10:31:30.591Z,27.74
2022-10-18T10:34:06.954Z,25.61
2022-10-18T10:36:35.186Z,24.85
2022-10-18T10:39:19.140Z,25.67
2022-10-18T10:41:50.708Z,25.34
2022-10-18T10:44:21.063Z,27.25
2022-10-18T10:46:50.343Z,25.97
2022-10-18T10:49:46.003Z,26.76
2022-10-18T10:52:28.077Z,27.98
2022-10-18T10:57:50.423Z,27.67
2022-10-18T11:00:41.877Z,22.95
2022-10-18T11:03:27.738Z,23.55
2022-10-18T11:05:55.667Z,26.13
2022-10-18T11:08:26.025Z,26.91
2022-10-18T11:11:04.832Z,24.32
2022-10-18T11:13:56.942Z,26.89
2022-10-18T11:16:56.767Z,26.64
2022-10-18T11:19:55.582Z,28.33
2022-10-18T11:22:25.971Z,26.45
2022-10-18T11:24:52.887Z,24.24
2022-10-18T11:27:30.398Z,29.38
2022-10-18T11:30:14.620Z,27.54
2022-10-18T11:33:15.283Z,26.82
2022-10-18T11:35:46.450Z,28.81
2022-10-18T11:38:38.818Z,28.25
2022-10-18T11:41:30.113Z,28.52
2022-10-18T11:44:10.127Z,26.59
2022-10-18T11:47:00.895Z,29.43
2022-10-18T11:49:36.940Z,28.32
2022-10-18T11:52:23.124Z,27.50
2022-10-18T11:54:56.009Z,27.45
2022-10-18T11:57:45.888Z,27.44
2022-10-18T12:00:22.026Z,29.22
2022-10-18T12:03:08.382Z,29.65
2022-10-18T12:05:39.772Z,29.46
2022-10-18T12:08:12.423Z,31.11
2022-10-18T12:10:59.937Z,30.58
2022-10-18T12:13:41.542Z,30.13
2022-10-18T12:16:10.319Z,28.52
2022-10-18T12:18:54.390Z,30.66
2022-10-18T12:21:26.179Z,30.58
2022-10-18T12:24:01.369Z,30.07
2022-10-18T12:26:29.832Z,29.44
2022-10-18T12:29:12.634Z,30.26
2022-10-18T12:31:59.422Z,28.03
2022-10-18T12:34:39.411Z,29.26
2022-10-18T12:37:29.522Z,29.23
2022-10-18T12:40:42.456Z,31.04
2022-10-18T12:43:17.220Z,27.78
2022-10-18T12:45:54.429Z,29.06
2022-10-18T12:48:38.763Z,26.76
2022-10-18T12:51:20.502Z,27.28
2022-10-18T12:54:12.084Z,27.71
2022-10-18T12:56:42.552Z,28.09
2022-10-18T12:59:15.373Z,29.24
2022-10-18T13:01:51.715Z,28.49
2022-10-18T13:04:28.506Z,28.08
2022-10-18T13:06:58.445Z,26.73
2022-10-18T13:09:27.182Z,26.05
2022-10-18T13:12:02.012Z,26.98
2022-10-18T13:14:53.439Z,26.72
2022-10-18T13:17:39.904Z,25.54
2022-10-18T13:20:27.205Z,26.31
2022-10-18T13:23:00.841Z,27.87
2022-10-18T13:25:49.874Z,27.21
2022-10-18T13:28:46.374Z,27.45
2022-10-18T13:31:40.363Z,29.10
2022-10-18T13:34:25.120Z,28.95
2022-10-18T13:37:01.179Z,28.88
2022-10-18T13:39:29.758Z,26.76
2022-10-18T13:41:57.717Z,27.22
2022-10-18T13:44:37.985Z,29.15
2022-10-18T13:47:04.682Z,25.54
2022-10-18T13:49:40.816Z,25.25
2022-10-18T13:52:23.192Z,26.38
2022-10-18T13:55:22.629Z,28.92
2022-10-18T13:58:04.707Z,29.01
2022-10-18T14:00:34.250Z,28.23
2022-10-18T14:03:43.982Z,29.04
2022-10-18T14:06:26.967Z,27.26
2022-10-18T14:09:25.499Z,27.13
2022-10-18T14:12:11.645Z,26.41
2022-10-18T14:14:43.362Z,28.54
2022-10-18T14:17:29.950Z,26.94
2022-10-18T14:20:15.121Z,26.59
2022-10-18T14:22:46.344Z,27.59
2022-10-18T14:25:23.663Z,26.21
2022-10-18T14:28:27.389Z,26.34
2022-10-18T14:31:09.666Z,26.25
2022-10-18T14:33:50.907Z,26.57
2022-10-18T14:36:20.475Z,26.04
2022-10-18T14:38:54.159Z,27.35
2022-10-18T14:41:31.660Z,25.11
2022-10-18T14:44:21.277Z,27.67
2022-10-18T14:46:48.059Z,27.00
2022-10-18T14:49:16.374Z,25.46
2022-10-18T14:51:45.642Z,27.08
2022-10-18T14:54:42.710Z,27.42
2022-10-18T14:57:25.543Z,27.40
2022-10-18T14:59:58.230Z,26.34
2022-10-18T15:02:30.937Z,26.85
2022-10-18T15:05:05.263Z,27.45
2022-10-18T15:07:32.835Z,25.55
2022-10-18T15:10:02.895Z,26.04
2022-10-18T15:12:41.006Z,26.23
2022-10-18T15:15:22.014Z,23.34
2022-10-18T15:17:50.117Z,25.82
2022-10-18T15:20:42.993Z,26.02
2022-10-18T15:23:26.315Z,26.21
2022-10-18T15:26:02.074Z,24.86
2022-10-18T15:28:40.665Z,24.06
2022-10-18T15:31:24.507Z,24.71
2022-10-18T15:33:52.065Z,25.29
2022-10-18T15:36:32.770Z,25.87
2022-10-18T15:39:27.035Z,25.45
2022-10-18T15:41:57.742Z,26.27
2022-10-18T15:44:35.063Z,25.28
2022-10-18T15:47:20.181Z,25.09
2022-10-18T15:49:58.285Z,25.94
2022-10-18T15:52:37.455Z,24.76
2022-10-18T15:55:29.740Z,23.39
2022-10-18T15:58:11.359Z,24.56
2022-10-18T16:00:38.771Z,24.36
2022-10-18T16:03:09.819Z,24.28
2022-10-18T16:05:38.207Z,24.35
2022-10-18T16:08:06.626Z,23.19
2022-10-18T16:10:33.338Z,22.99
2022-10-18T16:13:00.194Z,23.09
2022-10-18T16:15:26.937Z,24.57
2022-10-18T16:17:54.008Z,24.73
2022-10-18T16:20:26.197Z,24.35
2022-10-18T16:22:52.950Z,23.09
2022-10-18T16:25:19.691Z,24.98
2022-10-18T16:27:46.479Z,23.45
2022-10-18T16:30:19.943Z,23.81
2022-10-18T16:32:47.386Z,24.29
2022-10-18T16:35:14.153Z,23.70
2022-10-18T16:37:41.901Z,23.98
2022-10-18T16:40:22.424Z,24.02
2022-10-18T16:42:49.166Z,22.66
2022-10-18T16:45:16.490Z,23.49
2022-10-18T16:47:43.262Z,23.19
2022-10-18T16:50:16.866Z,23.99
2022-10-18T16:52:43.989Z,23.36
2022-10-18T16:55:26.447Z,23.94
2022-10-18T16:57:53.287Z,24.10
2022-10-18T17:00:23.547Z,23.31
2022-10-18T17:02:50.562Z,22.39
2022-10-18T17:05:18.432Z,22.84
2022-10-18T17:07:45.758Z,23.08
2022-10-18T17:10:19.149Z,22.77
2022-10-18T17:12:46.609Z,23.95
2022-10-18T17:15:13.542Z,23.75
2022-10-18T17:17:42.399Z,23.33
2022-10-18T17:20:12.125Z,23.83
2022-10-18T17:22:38.934Z,23.56
2022-10-18T17:25:07.270Z,22.72
2022-10-18T17:27:34.359Z,23.97
2022-10-18T17:30:01.749Z,23.41
2022-10-18T17:32:28.593Z,23.51
2022-10-18T17:34:56.334Z,23.32
2022-10-18T17:37:23.323Z,23.46
2022-10-18T17:39:50.021Z,22.39
2022-10-18T17:42:17.077Z,22.75
2022-10-18T17:44:45.955Z,23.03
2022-10-18T17:47:12.654Z,23.78
2022-10-18T17:49:41.128Z,22.64
2022-10-18T17:52:08.317Z,23.30
2022-10-18T17:54:35.132Z,23.18
2022-10-18T17:57:02.206Z,22.64
2022-10-18T17:59:28.981Z,23.31
2022-10-18T18:01:56.485Z,22.59
2022-10-18T18:04:24.239Z,21.09
2022-10-18T18:06:52.814Z,23.89
2022-10-18T18:09:21.118Z,22.97
2022-10-18T18:11:48.925Z,23.69
2022-10-18T18:14:16.245Z,23.32
2022-10-18T18:16:46.193Z,22.67
2022-10-18T18:19:13.901Z,23.48
2022-10-18T18:21:42.926Z,23.54
2022-10-18T18:24:11.709Z,24.08
2022-10-18T18:26:39.808Z,24.35
2022-10-18T18:29:07.656Z,23.57
2022-10-18T18:31:38.880Z,23.87
2022-10-18T18:34:10.396Z,23.77
2022-10-18T18:36:37.529Z,23.22
2022-10-18T18:39:09.140Z,23.80
2022-10-18T18:41:37.433Z,23.49
2022-10-18T18:44:05.819Z,23.19
2022-10-18T18:46:37.303Z,21.70
2022-10-18T18:49:04.897Z,20.79
2022-10-18T18:51:33.577Z,21.76
2022-10-18T18:54:00.485Z,24.12
2022-10-18T18:56:29.122Z,24.30
2022-10-18T18:58:58.720Z,22.25
2022-10-18T19:01:28.506Z,22.82
2022-10-18T19:03:57.355Z,23.03
2022-10-18T19:06:39.029Z,23.05
2022-10-18T19:09:12.988Z,23.59
2022-10-18T19:11:39.972Z,24.55
2022-10-18T19:14:09.078Z,23.64
2022-10-18T19:16:37.762Z,23.89
2022-10-18T19:19:13.296Z,23.78
2022-10-18T19:21:43.449Z,24.59
2022-10-18T19:24:11.162Z,23.67
2022-10-18T19:26:45.009Z,23.56
2022-10-18T19:29:16.182Z,24.71
2022-10-18T19:31:44.155Z,25.38
2022-10-18T19:34:13.845Z,25.22
2022-10-18T19:36:43.421Z,25.47
2022-10-18T19:39:15.835Z,23.17
2022-10-18T19:41:45.807Z,22.76
2022-10-18T19:44:13.983Z,23.71
2022-10-18T19:46:40.931Z,23.80
2022-10-18T19:49:09.659Z,23.20
2022-10-18T19:51:36.562Z,23.98
2022-10-18T19:54:04.307Z,24.51
2022-10-18T19:56:31.461Z,23.27
2022-10-18T19:58:59.704Z,23.06
2022-10-18T20:01:28.740Z,23.08
2022-10-18T20:03:55.932Z,22.44
2022-10-18T20:06:23.405Z,22.64
2022-10-18T20:08:50.772Z,21.73
2022-10-18T20:11:20.431Z,23.59
2022-10-18T20:13:47.474Z,22.39
2022-10-18T20:16:16.541Z,22.66
2022-10-18T20:18:44.295Z,22.30
2022-10-18T20:21:14.434Z,21.12
2022-10-18T20:23:43.192Z,21.35
2022-10-18T20:26:20.586Z,20.96
2022-10-18T20:28:56.883Z,21.55
2022-10-18T20:31:29.560Z,20.34
2022-10-18T20:34:02.065Z,19.36
2022-10-18T20:36:31.011Z,18.78
2022-10-18T20:38:59.314Z,19.39
2022-10-18T20:41:38.701Z,21.28
2022-10-18T20:44:08.475Z,21.45
2022-10-18T20:46:37.344Z,20.43
2022-10-18T20:49:06.900Z,21.76
2022-10-18T20:51:42.735Z,21.36
2022-10-18T20:54:10.440Z,22.24
2022-10-18T20:56:38.796Z,20.93
2022-10-18T20:59:09.502Z,21.81
2022-10-18T21:01:38.269Z,22.64
2022-10-18T21:04:07.701Z,21.76
2022-10-18T21:06:43.972Z,22.72
2022-10-18T21:09:16.092Z,20.87
2022-10-18T21:11:45.284Z,20.57
2022-10-18T21:14:18.789Z,21.48
2022-10-18T21:16:45.961Z,20.99
2022-10-18T21:19:14.549Z,21.09
2022-10-18T21:21:44.513Z,19.66
2022-10-18T21:24:12.746Z,21.20
2022-10-18T21:26:40.210Z,21.24
2022-10-18T21:29:07.266Z,21.05
2022-10-18T21:31:36.382Z,21.75
2022-10-18T21:34:13.244Z,21.93
2022-10-18T21:36:41.098Z,21.42
2022-10-18T21:39:11.242Z,19.97
2022-10-18T21:41:38.217Z,18.99
2022-10-18T21:44:08.313Z,19.62
2022-10-18T21:46:39.402Z,20.70
2022-10-18T21:49:07.511Z,21.03
2022-10-18T21:51:34.322Z,21.72
2022-10-18T21:54:01.337Z,21.54
2022-10-18T21:56:33.219Z,21.00
2022-10-18T21:59:01.398Z,20.39
2022-10-18T22:01:34.497Z,19.71
2022-10-18T22:04:02.872Z,21.86
2022-10-18T22:06:32.620Z,20.80
2022-10-18T22:09:03.263Z,21.46
2022-10-18T22:11:37.026Z,21.50
2022-10-18T22:14:04.115Z,21.53
2022-10-18T22:16:30.803Z,20.11
2022-10-18T22:18:59.749Z,18.90
2022-10-18T22:21:27.785Z,20.30
2022-10-18T22:23:59.828Z,20.33
2022-10-18T22:26:32.609Z,20.56
2022-10-18T22:29:03.337Z,21.48
2022-10-18T22:31:32.704Z,21.52
2022-10-18T22:34:03.261Z,22.19
2022-10-18T22:36:30.737Z,22.02
2022-10-18T22:38:57.886Z,20.97
2022-10-18T22:41:24.821Z,20.82
2022-10-18T22:43:52.865Z,22.20
2022-10-18T22:46:20.448Z,21.96
2022-10-18T22:48:48.140Z,21.48
2022-10-18T22:51:15.821Z,20.77
2022-10-18T22:53:43.093Z,16.82
2022-10-18T22:56:15.197Z,18.40
2022-10-18T22:58:41.856Z,20.87
2022-10-18T23:01:11.709Z,21.40
2022-10-18T23:03:38.969Z,21.85
2022-10-18T23:06:19.575Z,21.83
2022-10-18T23:08:46.291Z,21.77
2022-10-18T23:11:14.244Z,22.10
2022-10-18T23:13:40.979Z,21.45
2022-10-18T23:16:07.922Z,21.26
2022-10-18T23:18:34.944Z,21.43
2022-10-18T23:21:07.234Z,21.47
2022-10-18T23:23:35.877Z,20.91
2022-10-18T23:26:09.533Z,22.06
2022-10-18T23:28:38.287Z,20.60
2022-10-18T23:31:10.144Z,21.91
2022-10-18T23:33:38.366Z,20.49
2022-10-18T23:36:07.301Z,21.02
2022-10-18T23:38:35.049Z,21.28
2022-10-18T23:41:01.878Z,20.97
2022-10-18T23:43:28.683Z,20.65
2022-10-18T23:45:56.207Z,21.16
2022-10-18T23:48:22.960Z,21.64
2022-10-18T23:50:49.872Z,21.39
2022-10-18T23:53:16.811Z,20.27
2022-10-18T23:56:00.809Z,20.78
2022-10-18T23:58:29.350Z,21.38
